sensor_id;sensor_type;location;lat;lon;timestamp;P1;durP1;ratioP1;P2;durP2;ratioP2
35442;SDS011;21561;55.654;37.592;2022-07-18T00:02:13;12.35;;;4.50;;
35442;SDS011;21561;55.654;37.592;2022-07-18T00:04:40;11.57;;;4.18;;
35442;SDS011;21561;55.654;37.592;2022-07-18T00:07:08;11.88;;;4.28;;
35442;SDS011;21561;55.654;37.592;2022-07-18T00:09:37;10.52;;;3.97;;
35442;SDS011;21561;55.654;37.592;2022-07-18T00:12:06;9.13;;;3.53;;
35442;SDS011;21561;55.654;37.592;2022-07-18T00:14:34;8.25;;;3.38;;
35442;SDS011;21561;55.654;37.592;2022-07-18T00:17:02;14.77;;;4.03;;
35442;SDS011;21561;55.654;37.592;2022-07-18T00:19:30;8.73;;;3.33;;
35442;SDS011;21561;55.654;37.592;2022-07-18T00:21:57;10.15;;;3.53;;
35442;SDS011;21561;55.654;37.592;2022-07-18T00:24:25;11.77;;;3.50;;
35442;SDS011;21561;55.654;37.592;2022-07-18T00:26:52;9.50;;;3.20;;
35442;SDS011;21561;55.654;37.592;2022-07-18T00:29:18;11.40;;;3.60;;
35442;SDS011;21561;55.654;37.592;2022-07-18T00:31:45;11.43;;;3.17;;
35442;SDS011;21561;55.654;37.592;2022-07-18T00:34:12;8.70;;;3.17;;
35442;SDS011;21561;55.654;37.592;2022-07-18T00:36:39;9.02;;;3.28;;
35442;SDS011;21561;55.654;37.592;2022-07-18T00:39:06;7.95;;;3.25;;
35442;SDS011;21561;55.654;37.592;2022-07-18T00:41:33;12.00;;;3.58;;
35442;SDS011;21561;55.654;37.592;2022-07-18T00:44:00;10.43;;;3.65;;
35442;SDS011;21561;55.654;37.592;2022-07-18T00:46:28;9.95;;;3.50;;
35442;SDS011;21561;55.654;37.592;2022-07-18T00:48:55;9.40;;;3.47;;
35442;SDS011;21561;55.654;37.592;2022-07-18T00:51:22;12.00;;;3.40;;
35442;SDS011;21561;55.654;37.592;2022-07-18T00:53:49;12.65;;;3.33;;
35442;SDS011;21561;55.654;37.592;2022-07-18T00:56:18;7.50;;;2.65;;
35442;SDS011;21561;55.654;37.592;2022-07-18T00:58:46;8.85;;;2.95;;
35442;SDS011;21561;55.654;37.592;2022-07-18T01:01:13;9.55;;;3.22;;
35442;SDS011;21561;55.654;37.592;2022-07-18T01:03:59;9.13;;;3.30;;
35442;SDS011;21561;55.654;37.592;2022-07-18T01:06:26;7.55;;;2.92;;
35442;SDS011;21561;55.654;37.592;2022-07-18T01:08:53;9.43;;;3.10;;
35442;SDS011;21561;55.654;37.592;2022-07-18T01:11:20;12.70;;;3.13;;
35442;SDS011;21561;55.654;37.592;2022-07-18T01:13:48;8.82;;;3.00;;
35442;SDS011;21561;55.654;37.592;2022-07-18T01:16:16;9.75;;;2.90;;
35442;SDS011;21561;55.654;37.592;2022-07-18T01:18:45;7.47;;;2.92;;
35442;SDS011;21561;55.654;37.592;2022-07-18T01:23:43;6.80;;;2.88;;
35442;SDS011;21561;55.654;37.592;2022-07-18T01:26:14;7.68;;;2.75;;
35442;SDS011;21561;55.654;37.592;2022-07-18T01:28:43;13.20;;;3.00;;
35442;SDS011;21561;55.654;37.592;2022-07-18T01:31:10;10.30;;;3.00;;
35442;SDS011;21561;55.654;37.592;2022-07-18T01:33:37;6.63;;;2.85;;
35442;SDS011;21561;55.654;37.592;2022-07-18T01:36:05;7.22;;;2.70;;
35442;SDS011;21561;55.654;37.592;2022-07-18T01:38:33;8.05;;;2.80;;
35442;SDS011;21561;55.654;37.592;2022-07-18T01:41:01;8.68;;;2.72;;
35442;SDS011;21561;55.654;37.592;2022-07-18T01:43:28;8.13;;;2.53;;
35442;SDS011;21561;55.654;37.592;2022-07-18T01:45:55;9.02;;;2.75;;
35442;SDS011;21561;55.654;37.592;2022-07-18T01:48:23;8.32;;;2.90;;
35442;SDS011;21561;55.654;37.592;2022-07-18T01:50:51;11.00;;;3.10;;
35442;SDS011;21561;55.654;37.592;2022-07-18T01:53:18;10.18;;;2.80;;
35442;SDS011;21561;55.654;37.592;2022-07-18T01:55:45;9.43;;;3.00;;
35442;SDS011;21561;55.654;37.592;2022-07-18T01:58:12;7.07;;;2.90;;
35442;SDS011;21561;55.654;37.592;2022-07-18T02:00:39;8.85;;;2.95;;
35442;SDS011;21561;55.654;37.592;2022-07-18T02:03:06;9.25;;;3.00;;
35442;SDS011;21561;55.654;37.592;2022-07-18T02:05:33;7.78;;;2.55;;
35442;SDS011;21561;55.654;37.592;2022-07-18T02:08:00;9.05;;;2.85;;
35442;SDS011;21561;55.654;37.592;2022-07-18T02:10:27;8.10;;;2.80;;
35442;SDS011;21561;55.654;37.592;2022-07-18T02:12:54;13.73;;;3.58;;
35442;SDS011;21561;55.654;37.592;2022-07-18T02:15:22;8.70;;;3.10;;
35442;SDS011;21561;55.654;37.592;2022-07-18T02:17:49;5.75;;;2.65;;
35442;SDS011;21561;55.654;37.592;2022-07-18T02:20:16;8.15;;;2.65;;
35442;SDS011;21561;55.654;37.592;2022-07-18T02:22:43;15.32;;;2.65;;
35442;SDS011;21561;55.654;37.592;2022-07-18T02:25:10;12.23;;;2.90;;
35442;SDS011;21561;55.654;37.592;2022-07-18T02:27:37;7.00;;;2.55;;
35442;SDS011;21561;55.654;37.592;2022-07-18T02:30:05;7.18;;;2.65;;
35442;SDS011;21561;55.654;37.592;2022-07-18T02:32:34;5.60;;;2.42;;
35442;SDS011;21561;55.654;37.592;2022-07-18T02:35:04;9.25;;;2.97;;
35442;SDS011;21561;55.654;37.592;2022-07-18T02:37:33;9.15;;;2.58;;
35442;SDS011;21561;55.654;37.592;2022-07-18T02:40:00;9.15;;;2.60;;
35442;SDS011;21561;55.654;37.592;2022-07-18T02:42:28;7.43;;;2.58;;
35442;SDS011;21561;55.654;37.592;2022-07-18T02:44:55;7.80;;;2.58;;
35442;SDS011;21561;55.654;37.592;2022-07-18T02:47:22;7.70;;;2.65;;
35442;SDS011;21561;55.654;37.592;2022-07-18T02:49:49;9.15;;;2.50;;
35442;SDS011;21561;55.654;37.592;2022-07-18T02:52:16;6.13;;;2.50;;
35442;SDS011;21561;55.654;37.592;2022-07-18T02:54:43;7.85;;;2.55;;
35442;SDS011;21561;55.654;37.592;2022-07-18T02:57:11;10.68;;;2.63;;
35442;SDS011;21561;55.654;37.592;2022-07-18T02:59:41;4.28;;;2.00;;
35442;SDS011;21561;55.654;37.592;2022-07-18T03:02:08;7.63;;;2.50;;
35442;SDS011;21561;55.654;37.592;2022-07-18T03:04:34;8.82;;;2.50;;
35442;SDS011;21561;55.654;37.592;2022-07-18T03:07:01;7.75;;;2.38;;
35442;SDS011;21561;55.654;37.592;2022-07-18T03:09:28;10.65;;;2.45;;
35442;SDS011;21561;55.654;37.592;2022-07-18T03:11:56;6.93;;;2.50;;
35442;SDS011;21561;55.654;37.592;2022-07-18T03:14:23;9.93;;;2.95;;
35442;SDS011;21561;55.654;37.592;2022-07-18T03:16:51;10.10;;;2.58;;
35442;SDS011;21561;55.654;37.592;2022-07-18T03:19:18;8.10;;;2.35;;
35442;SDS011;21561;55.654;37.592;2022-07-18T03:21:45;10.05;;;2.72;;
35442;SDS011;21561;55.654;37.592;2022-07-18T03:24:12;8.57;;;2.60;;
35442;SDS011;21561;55.654;37.592;2022-07-18T03:26:40;8.55;;;2.33;;
35442;SDS011;21561;55.654;37.592;2022-07-18T03:29:09;6.30;;;2.22;;
35442;SDS011;21561;55.654;37.592;2022-07-18T03:31:36;13.82;;;3.05;;
35442;SDS011;21561;55.654;37.592;2022-07-18T03:34:04;6.85;;;2.40;;
35442;SDS011;21561;55.654;37.592;2022-07-18T03:36:31;7.60;;;2.35;;
35442;SDS011;21561;55.654;37.592;2022-07-18T03:38:59;6.75;;;2.30;;
35442;SDS011;21561;55.654;37.592;2022-07-18T03:41:29;10.05;;;2.28;;
35442;SDS011;21561;55.654;37.592;2022-07-18T03:43:56;8.63;;;2.17;;
35442;SDS011;21561;55.654;37.592;2022-07-18T03:46:23;8.10;;;2.63;;
35442;SDS011;21561;55.654;37.592;2022-07-18T03:48:50;10.77;;;2.38;;
35442;SDS011;21561;55.654;37.592;2022-07-18T03:51:16;8.23;;;2.17;;
35442;SDS011;21561;55.654;37.592;2022-07-18T03:53:43;6.97;;;2.00;;
35442;SDS011;21561;55.654;37.592;2022-07-18T03:56:10;7.28;;;2.22;;
35442;SDS011;21561;55.654;37.592;2022-07-18T03:58:37;8.02;;;2.47;;
35442;SDS011;21561;55.654;37.592;2022-07-18T04:01:04;6.03;;;2.50;;
35442;SDS011;21561;55.654;37.592;2022-07-18T04:03:31;8.00;;;2.13;;
35442;SDS011;21561;55.654;37.592;2022-07-18T04:05:58;9.43;;;2.50;;
35442;SDS011;21561;55.654;37.592;2022-07-18T04:08:26;5.07;;;2.28;;
35442;SDS011;21561;55.654;37.592;2022-07-18T04:10:53;7.22;;;2.33;;
35442;SDS011;21561;55.654;37.592;2022-07-18T04:13:20;10.40;;;2.38;;
35442;SDS011;21561;55.654;37.592;2022-07-18T04:15:47;9.68;;;2.50;;
35442;SDS011;21561;55.654;37.592;2022-07-18T04:18:14;7.93;;;2.13;;
35442;SDS011;21561;55.654;37.592;2022-07-18T04:20:41;8.60;;;2.78;;
35442;SDS011;21561;55.654;37.592;2022-07-18T04:23:08;11.57;;;2.88;;
35442;SDS011;21561;55.654;37.592;2022-07-18T04:25:37;7.57;;;2.42;;
35442;SDS011;21561;55.654;37.592;2022-07-18T04:28:06;9.75;;;2.30;;
35442;SDS011;21561;55.654;37.592;2022-07-18T04:30:36;8.00;;;2.63;;
35442;SDS011;21561;55.654;37.592;2022-07-18T04:33:05;10.38;;;2.88;;
35442;SDS011;21561;55.654;37.592;2022-07-18T04:35:33;14.02;;;2.95;;
35442;SDS011;21561;55.654;37.592;2022-07-18T04:38:05;7.72;;;2.47;;
35442;SDS011;21561;55.654;37.592;2022-07-18T04:40:33;7.88;;;2.53;;
35442;SDS011;21561;55.654;37.592;2022-07-18T04:43:00;8.30;;;2.50;;
35442;SDS011;21561;55.654;37.592;2022-07-18T04:45:27;9.50;;;2.80;;
35442;SDS011;21561;55.654;37.592;2022-07-18T04:47:54;6.75;;;2.40;;
35442;SDS011;21561;55.654;37.592;2022-07-18T04:50:21;8.57;;;2.88;;
35442;SDS011;21561;55.654;37.592;2022-07-18T04:52:50;6.90;;;2.40;;
35442;SDS011;21561;55.654;37.592;2022-07-18T04:55:17;7.80;;;2.30;;
35442;SDS011;21561;55.654;37.592;2022-07-18T04:57:47;7.85;;;2.30;;
35442;SDS011;21561;55.654;37.592;2022-07-18T05:00:16;7.80;;;2.55;;
35442;SDS011;21561;55.654;37.592;2022-07-18T05:02:46;8.30;;;2.45;;
35442;SDS011;21561;55.654;37.592;2022-07-18T05:05:15;9.35;;;2.13;;
35442;SDS011;21561;55.654;37.592;2022-07-18T05:07:43;8.63;;;2.10;;
35442;SDS011;21561;55.654;37.592;2022-07-18T05:10:12;9.05;;;2.65;;
35442;SDS011;21561;55.654;37.592;2022-07-18T05:12:41;6.18;;;2.30;;
35442;SDS011;21561;55.654;37.592;2022-07-18T05:15:10;7.60;;;2.63;;
35442;SDS011;21561;55.654;37.592;2022-07-18T05:17:39;8.00;;;2.40;;
35442;SDS011;21561;55.654;37.592;2022-07-18T05:20:08;9.70;;;2.50;;
35442;SDS011;21561;55.654;37.592;2022-07-18T05:22:37;6.30;;;2.30;;
35442;SDS011;21561;55.654;37.592;2022-07-18T05:25:04;10.73;;;2.83;;
35442;SDS011;21561;55.654;37.592;2022-07-18T05:27:33;7.50;;;2.38;;
35442;SDS011;21561;55.654;37.592;2022-07-18T05:30:00;11.40;;;3.53;;
35442;SDS011;21561;55.654;37.592;2022-07-18T05:32:28;12.27;;;2.83;;
35442;SDS011;21561;55.654;37.592;2022-07-18T05:34:55;7.72;;;2.67;;
35442;SDS011;21561;55.654;37.592;2022-07-18T05:37:22;12.60;;;2.92;;
35442;SDS011;21561;55.654;37.592;2022-07-18T05:39:50;8.48;;;2.50;;
35442;SDS011;21561;55.654;37.592;2022-07-18T05:42:20;10.63;;;2.80;;
35442;SDS011;21561;55.654;37.592;2022-07-18T05:45:07;8.80;;;2.58;;
35442;SDS011;21561;55.654;37.592;2022-07-18T05:47:35;9.35;;;2.70;;
35442;SDS011;21561;55.654;37.592;2022-07-18T05:50:02;9.10;;;2.67;;
35442;SDS011;21561;55.654;37.592;2022-07-18T05:52:31;9.13;;;2.80;;
35442;SDS011;21561;55.654;37.592;2022-07-18T05:54:58;10.68;;;2.70;;
35442;SDS011;21561;55.654;37.592;2022-07-18T05:57:25;10.93;;;3.08;;
35442;SDS011;21561;55.654;37.592;2022-07-18T05:59:51;11.30;;;2.95;;
35442;SDS011;21561;55.654;37.592;2022-07-18T06:02:18;11.10;;;3.40;;
35442;SDS011;21561;55.654;37.592;2022-07-18T06:04:45;12.35;;;3.28;;
35442;SDS011;21561;55.654;37.592;2022-07-18T06:07:32;14.43;;;3.53;;
35442;SDS011;21561;55.654;37.592;2022-07-18T06:09:59;11.25;;;3.20;;
35442;SDS011;21561;55.654;37.592;2022-07-18T06:12:29;13.25;;;3.60;;
35442;SDS011;21561;55.654;37.592;2022-07-18T06:15:00;11.60;;;3.42;;
35442;SDS011;21561;55.654;37.592;2022-07-18T06:17:33;11.48;;;3.20;;
35442;SDS011;21561;55.654;37.592;2022-07-18T06:20:00;9.05;;;3.45;;
35442;SDS011;21561;55.654;37.592;2022-07-18T06:22:30;8.95;;;3.03;;
35442;SDS011;21561;55.654;37.592;2022-07-18T06:24:57;11.18;;;3.10;;
35442;SDS011;21561;55.654;37.592;2022-07-18T06:27:24;13.07;;;3.67;;
35442;SDS011;21561;55.654;37.592;2022-07-18T06:29:51;12.07;;;3.13;;
35442;SDS011;21561;55.654;37.592;2022-07-18T06:32:18;9.10;;;3.00;;
35442;SDS011;21561;55.654;37.592;2022-07-18T06:34:45;13.25;;;3.00;;
35442;SDS011;21561;55.654;37.592;2022-07-18T06:37:12;11.15;;;3.20;;
35442;SDS011;21561;55.654;37.592;2022-07-18T06:39:39;14.05;;;3.80;;
35442;SDS011;21561;55.654;37.592;2022-07-18T06:42:06;13.00;;;3.80;;
35442;SDS011;21561;55.654;37.592;2022-07-18T06:44:32;12.15;;;3.13;;
35442;SDS011;21561;55.654;37.592;2022-07-18T06:46:59;10.68;;;3.13;;
35442;SDS011;21561;55.654;37.592;2022-07-18T06:49:26;13.75;;;3.45;;
35442;SDS011;21561;55.654;37.592;2022-07-18T06:51:53;13.27;;;3.63;;
35442;SDS011;21561;55.654;37.592;2022-07-18T06:54:27;18.10;;;3.95;;
35442;SDS011;21561;55.654;37.592;2022-07-18T06:56:54;15.73;;;3.80;;
35442;SDS011;21561;55.654;37.592;2022-07-18T06:59:21;13.05;;;3.80;;
35442;SDS011;21561;55.654;37.592;2022-07-18T07:01:49;15.82;;;3.80;;
35442;SDS011;21561;55.654;37.592;2022-07-18T07:04:17;14.60;;;3.08;;
35442;SDS011;21561;55.654;37.592;2022-07-18T07:06:44;11.85;;;2.92;;
35442;SDS011;21561;55.654;37.592;2022-07-18T07:09:10;13.95;;;2.75;;
35442;SDS011;21561;55.654;37.592;2022-07-18T07:11:37;13.93;;;2.80;;
35442;SDS011;21561;55.654;37.592;2022-07-18T07:14:04;12.20;;;2.80;;
35442;SDS011;21561;55.654;37.592;2022-07-18T07:16:31;8.68;;;2.45;;
35442;SDS011;21561;55.654;37.592;2022-07-18T07:18:58;7.78;;;2.38;;
35442;SDS011;21561;55.654;37.592;2022-07-18T07:21:25;13.82;;;3.00;;
35442;SDS011;21561;55.654;37.592;2022-07-18T07:23:52;8.77;;;2.88;;
35442;SDS011;21561;55.654;37.592;2022-07-18T07:26:19;11.32;;;2.80;;
35442;SDS011;21561;55.654;37.592;2022-07-18T07:28:46;13.20;;;2.90;;
35442;SDS011;21561;55.654;37.592;2022-07-18T07:31:13;9.70;;;2.70;;
35442;SDS011;21561;55.654;37.592;2022-07-18T07:33:40;8.55;;;2.60;;
35442;SDS011;21561;55.654;37.592;2022-07-18T07:36:07;11.63;;;2.70;;
35442;SDS011;21561;55.654;37.592;2022-07-18T07:38:34;15.60;;;3.35;;
35442;SDS011;21561;55.654;37.592;2022-07-18T07:41:01;9.60;;;3.10;;
35442;SDS011;21561;55.654;37.592;2022-07-18T07:43:28;12.93;;;3.20;;
35442;SDS011;21561;55.654;37.592;2022-07-18T07:45:55;10.18;;;3.03;;
35442;SDS011;21561;55.654;37.592;2022-07-18T07:48:22;18.38;;;4.13;;
35442;SDS011;21561;55.654;37.592;2022-07-18T07:50:50;14.60;;;3.40;;
35442;SDS011;21561;55.654;37.592;2022-07-18T07:53:20;10.70;;;3.55;;
35442;SDS011;21561;55.654;37.592;2022-07-18T07:55:47;15.30;;;3.33;;
35442;SDS011;21561;55.654;37.592;2022-07-18T07:58:14;11.75;;;3.28;;
35442;SDS011;21561;55.654;37.592;2022-07-18T08:00:41;12.15;;;3.60;;
35442;SDS011;21561;55.654;37.592;2022-07-18T08:03:08;14.48;;;3.40;;
35442;SDS011;21561;55.654;37.592;2022-07-18T08:05:37;15.80;;;3.22;;
35442;SDS011;21561;55.654;37.592;2022-07-18T08:08:08;11.98;;;2.80;;
35442;SDS011;21561;55.654;37.592;2022-07-18T08:10:34;12.38;;;3.00;;
35442;SDS011;21561;55.654;37.592;2022-07-18T08:13:09;9.05;;;3.00;;
35442;SDS011;21561;55.654;37.592;2022-07-18T08:15:37;9.55;;;2.92;;
35442;SDS011;21561;55.654;37.592;2022-07-18T08:18:05;10.98;;;3.15;;
35442;SDS011;21561;55.654;37.592;2022-07-18T08:20:32;8.32;;;2.83;;
35442;SDS011;21561;55.654;37.592;2022-07-18T08:23:04;10.35;;;3.20;;
35442;SDS011;21561;55.654;37.592;2022-07-18T08:25:36;11.20;;;2.90;;
35442;SDS011;21561;55.654;37.592;2022-07-18T08:28:04;12.23;;;3.70;;
35442;SDS011;21561;55.654;37.592;2022-07-18T08:30:33;10.63;;;3.35;;
35442;SDS011;21561;55.654;37.592;2022-07-18T08:33:01;9.68;;;3.13;;
35442;SDS011;21561;55.654;37.592;2022-07-18T08:35:28;12.25;;;3.22;;
35442;SDS011;21561;55.654;37.592;2022-07-18T08:37:56;12.30;;;3.30;;
35442;SDS011;21561;55.654;37.592;2022-07-18T08:40:23;10.25;;;3.13;;
35442;SDS011;21561;55.654;37.592;2022-07-18T08:42:51;10.45;;;2.90;;
35442;SDS011;21561;55.654;37.592;2022-07-18T08:45:42;6.38;;;2.33;;
35442;SDS011;21561;55.654;37.592;2022-07-18T08:48:09;14.18;;;2.80;;
35442;SDS011;21561;55.654;37.592;2022-07-18T08:50:44;14.90;;;3.00;;
35442;SDS011;21561;55.654;37.592;2022-07-18T08:53:12;12.52;;;2.50;;
35442;SDS011;21561;55.654;37.592;2022-07-18T08:55:40;11.48;;;2.70;;
35442;SDS011;21561;55.654;37.592;2022-07-18T08:58:07;12.93;;;2.65;;
35442;SDS011;21561;55.654;37.592;2022-07-18T09:00:56;10.52;;;2.80;;
35442;SDS011;21561;55.654;37.592;2022-07-18T09:03:27;10.48;;;2.53;;
35442;SDS011;21561;55.654;37.592;2022-07-18T09:06:07;8.02;;;2.35;;
35442;SDS011;21561;55.654;37.592;2022-07-18T09:08:37;9.23;;;3.25;;
35442;SDS011;21561;55.654;37.592;2022-07-18T09:11:08;7.03;;;2.10;;
35442;SDS011;21561;55.654;37.592;2022-07-18T09:16:23;6.35;;;2.15;;
35442;SDS011;21561;55.654;37.592;2022-07-18T09:18:51;11.10;;;2.30;;
35442;SDS011;21561;55.654;37.592;2022-07-18T09:21:21;5.65;;;2.22;;
35442;SDS011;21561;55.654;37.592;2022-07-18T09:23:50;11.93;;;2.58;;
35442;SDS011;21561;55.654;37.592;2022-07-18T09:29:04;10.38;;;2.17;;
35442;SDS011;21561;55.654;37.592;2022-07-18T09:31:51;12.73;;;2.70;;
35442;SDS011;21561;55.654;37.592;2022-07-18T09:34:34;8.70;;;2.50;;
35442;SDS011;21561;55.654;37.592;2022-07-18T09:37:05;7.22;;;2.13;;
35442;SDS011;21561;55.654;37.592;2022-07-18T09:39:37;7.25;;;2.38;;
35442;SDS011;21561;55.654;37.592;2022-07-18T09:42:14;7.07;;;2.15;;
35442;SDS011;21561;55.654;37.592;2022-07-18T09:44:57;8.65;;;2.40;;
35442;SDS011;21561;55.654;37.592;2022-07-18T09:47:26;11.37;;;2.40;;
35442;SDS011;21561;55.654;37.592;2022-07-18T09:49:53;14.93;;;2.53;;
35442;SDS011;21561;55.654;37.592;2022-07-18T09:52:21;8.68;;;2.40;;
35442;SDS011;21561;55.654;37.592;2022-07-18T09:54:49;8.30;;;2.30;;
35442;SDS011;21561;55.654;37.592;2022-07-18T09:57:25;5.68;;;2.20;;
35442;SDS011;21561;55.654;37.592;2022-07-18T09:59:53;9.27;;;2.17;;
35442;SDS011;21561;55.654;37.592;2022-07-18T10:02:21;12.20;;;2.33;;
35442;SDS011;21561;55.654;37.592;2022-07-18T10:04:48;10.52;;;2.38;;
35442;SDS011;21561;55.654;37.592;2022-07-18T10:07:16;9.40;;;2.15;;
35442;SDS011;21561;55.654;37.592;2022-07-18T10:09:43;13.15;;;2.38;;
35442;SDS011;21561;55.654;37.592;2022-07-18T10:12:13;9.27;;;2.30;;
35442;SDS011;21561;55.654;37.592;2022-07-18T10:14:41;8.38;;;2.30;;
35442;SDS011;21561;55.654;37.592;2022-07-18T10:17:10;9.73;;;2.10;;
35442;SDS011;21561;55.654;37.592;2022-07-18T10:19:37;6.22;;;2.15;;
35442;SDS011;21561;55.654;37.592;2022-07-18T10:22:05;8.70;;;2.28;;
35442;SDS011;21561;55.654;37.592;2022-07-18T10:24:35;7.70;;;2.25;;
35442;SDS011;21561;55.654;37.592;2022-07-18T10:27:18;8.60;;;2.20;;
35442;SDS011;21561;55.654;37.592;2022-07-18T10:32:36;11.90;;;2.30;;
35442;SDS011;21561;55.654;37.592;2022-07-18T10:35:04;9.02;;;2.13;;
35442;SDS011;21561;55.654;37.592;2022-07-18T10:37:33;8.48;;;2.42;;
35442;SDS011;21561;55.654;37.592;2022-07-18T10:45:55;12.15;;;2.90;;
35442;SDS011;21561;55.654;37.592;2022-07-18T10:51:09;6.60;;;2.08;;
35442;SDS011;21561;55.654;37.592;2022-07-18T10:58:55;10.45;;;2.58;;
35442;SDS011;21561;55.654;37.592;2022-07-18T11:01:23;9.60;;;2.60;;
35442;SDS011;21561;55.654;37.592;2022-07-18T11:09:40;7.45;;;2.35;;
35442;SDS011;21561;55.654;37.592;2022-07-18T11:20:27;10.80;;;2.58;;
35442;SDS011;21561;55.654;37.592;2022-07-18T11:23:02;9.57;;;2.53;;
35442;SDS011;21561;55.654;37.592;2022-07-18T11:25:31;9.95;;;2.40;;
35442;SDS011;21561;55.654;37.592;2022-07-18T11:28:18;10.63;;;3.10;;
35442;SDS011;21561;55.654;37.592;2022-07-18T11:30:45;9.57;;;2.58;;
35442;SDS011;21561;55.654;37.592;2022-07-18T11:33:23;10.05;;;2.60;;
35442;SDS011;21561;55.654;37.592;2022-07-18T11:36:08;11.00;;;2.53;;
35442;SDS011;21561;55.654;37.592;2022-07-18T11:38:37;8.32;;;2.40;;
35442;SDS011;21561;55.654;37.592;2022-07-18T11:41:06;7.10;;;2.35;;
35442;SDS011;21561;55.654;37.592;2022-07-18T11:43:33;10.57;;;2.65;;
35442;SDS011;21561;55.654;37.592;2022-07-18T11:46:05;10.43;;;2.55;;
35442;SDS011;21561;55.654;37.592;2022-07-18T11:48:41;9.88;;;2.67;;
35442;SDS011;21561;55.654;37.592;2022-07-18T11:51:17;7.75;;;2.40;;
35442;SDS011;21561;55.654;37.592;2022-07-18T11:53:50;12.13;;;2.95;;
35442;SDS011;21561;55.654;37.592;2022-07-18T11:56:19;9.90;;;2.90;;
35442;SDS011;21561;55.654;37.592;2022-07-18T11:58:49;9.18;;;2.58;;
35442;SDS011;21561;55.654;37.592;2022-07-18T12:01:16;10.50;;;3.03;;
35442;SDS011;21561;55.654;37.592;2022-07-18T12:03:47;9.70;;;2.78;;
35442;SDS011;21561;55.654;37.592;2022-07-18T12:06:20;11.65;;;3.30;;
35442;SDS011;21561;55.654;37.592;2022-07-18T12:08:51;11.35;;;3.15;;
35442;SDS011;21561;55.654;37.592;2022-07-18T12:16:37;11.10;;;2.90;;
35442;SDS011;21561;55.654;37.592;2022-07-18T12:19:16;8.88;;;2.88;;
35442;SDS011;21561;55.654;37.592;2022-07-18T12:30:08;14.52;;;2.83;;
35442;SDS011;21561;55.654;37.592;2022-07-18T12:35:32;13.80;;;3.15;;
35442;SDS011;21561;55.654;37.592;2022-07-18T12:38:04;9.88;;;2.70;;
35442;SDS011;21561;55.654;37.592;2022-07-18T12:43:15;8.15;;;2.55;;
35442;SDS011;21561;55.654;37.592;2022-07-18T12:45:56;9.82;;;2.55;;
35442;SDS011;21561;55.654;37.592;2022-07-18T12:48:26;9.50;;;2.72;;
35442;SDS011;21561;55.654;37.592;2022-07-18T12:51:01;10.90;;;2.60;;
35442;SDS011;21561;55.654;37.592;2022-07-18T12:53:30;10.65;;;2.83;;
35442;SDS011;21561;55.654;37.592;2022-07-18T12:55:58;5.68;;;2.30;;
35442;SDS011;21561;55.654;37.592;2022-07-18T12:58:25;8.00;;;2.05;;
35442;SDS011;21561;55.654;37.592;2022-07-18T13:00:52;8.73;;;2.25;;
35442;SDS011;21561;55.654;37.592;2022-07-18T13:03:31;8.00;;;1.90;;
35442;SDS011;21561;55.654;37.592;2022-07-18T13:05:59;8.25;;;1.92;;
35442;SDS011;21561;55.654;37.592;2022-07-18T13:08:26;7.28;;;2.03;;
35442;SDS011;21561;55.654;37.592;2022-07-18T13:10:54;8.18;;;1.80;;
35442;SDS011;21561;55.654;37.592;2022-07-18T13:13:21;10.60;;;1.98;;
35442;SDS011;21561;55.654;37.592;2022-07-18T13:15:48;7.57;;;2.20;;
35442;SDS011;21561;55.654;37.592;2022-07-18T13:18:15;9.32;;;2.30;;
35442;SDS011;21561;55.654;37.592;2022-07-18T13:20:42;6.75;;;2.10;;
35442;SDS011;21561;55.654;37.592;2022-07-18T13:23:09;6.95;;;2.10;;
35442;SDS011;21561;55.654;37.592;2022-07-18T13:25:38;6.25;;;2.13;;
35442;SDS011;21561;55.654;37.592;2022-07-18T13:28:05;7.32;;;2.35;;
35442;SDS011;21561;55.654;37.592;2022-07-18T13:30:31;11.82;;;2.20;;
35442;SDS011;21561;55.654;37.592;2022-07-18T13:32:59;7.47;;;2.55;;
35442;SDS011;21561;55.654;37.592;2022-07-18T13:35:26;7.63;;;2.33;;
35442;SDS011;21561;55.654;37.592;2022-07-18T13:37:53;6.30;;;2.63;;
35442;SDS011;21561;55.654;37.592;2022-07-18T13:40:20;6.60;;;2.30;;
35442;SDS011;21561;55.654;37.592;2022-07-18T13:42:53;11.02;;;2.25;;
35442;SDS011;21561;55.654;37.592;2022-07-18T13:45:20;10.85;;;2.53;;
35442;SDS011;21561;55.654;37.592;2022-07-18T13:47:47;6.72;;;2.25;;
35442;SDS011;21561;55.654;37.592;2022-07-18T13:50:14;8.85;;;2.15;;
35442;SDS011;21561;55.654;37.592;2022-07-18T13:52:41;13.45;;;2.50;;
35442;SDS011;21561;55.654;37.592;2022-07-18T13:55:09;7.90;;;2.42;;
35442;SDS011;21561;55.654;37.592;2022-07-18T13:57:37;5.97;;;2.20;;
35442;SDS011;21561;55.654;37.592;2022-07-18T14:00:05;8.93;;;2.17;;
35442;SDS011;21561;55.654;37.592;2022-07-18T14:02:34;6.50;;;2.22;;
35442;SDS011;21561;55.654;37.592;2022-07-18T14:05:02;8.65;;;2.63;;
35442;SDS011;21561;55.654;37.592;2022-07-18T14:07:43;10.75;;;2.47;;
35442;SDS011;21561;55.654;37.592;2022-07-18T14:10:11;6.13;;;2.23;;
35442;SDS011;21561;55.654;37.592;2022-07-18T14:12:39;4.55;;;1.90;;
35442;SDS011;21561;55.654;37.592;2022-07-18T14:15:07;7.38;;;1.90;;
35442;SDS011;21561;55.654;37.592;2022-07-18T14:17:34;8.00;;;1.80;;
35442;SDS011;21561;55.654;37.592;2022-07-18T14:20:01;4.90;;;1.73;;
35442;SDS011;21561;55.654;37.592;2022-07-18T14:22:29;5.65;;;2.03;;
35442;SDS011;21561;55.654;37.592;2022-07-18T14:24:56;5.90;;;1.60;;
35442;SDS011;21561;55.654;37.592;2022-07-18T14:27:23;4.78;;;1.67;;
35442;SDS011;21561;55.654;37.592;2022-07-18T14:29:50;5.40;;;1.70;;
35442;SDS011;21561;55.654;37.592;2022-07-18T14:32:18;4.25;;;1.80;;
35442;SDS011;21561;55.654;37.592;2022-07-18T14:34:45;5.32;;;1.80;;
35442;SDS011;21561;55.654;37.592;2022-07-18T14:37:12;3.78;;;1.70;;
35442;SDS011;21561;55.654;37.592;2022-07-18T14:39:39;5.70;;;1.80;;
35442;SDS011;21561;55.654;37.592;2022-07-18T14:42:06;6.35;;;1.90;;
35442;SDS011;21561;55.654;37.592;2022-07-18T14:44:34;6.88;;;1.92;;
35442;SDS011;21561;55.654;37.592;2022-07-18T14:47:01;5.15;;;1.70;;
35442;SDS011;21561;55.654;37.592;2022-07-18T14:49:28;7.13;;;1.80;;
35442;SDS011;21561;55.654;37.592;2022-07-18T14:51:55;7.80;;;2.08;;
35442;SDS011;21561;55.654;37.592;2022-07-18T14:54:23;4.07;;;1.63;;
35442;SDS011;21561;55.654;37.592;2022-07-18T14:56:50;7.80;;;1.77;;
35442;SDS011;21561;55.654;37.592;2022-07-18T14:59:18;4.88;;;1.80;;
35442;SDS011;21561;55.654;37.592;2022-07-18T15:01:45;6.38;;;1.90;;
35442;SDS011;21561;55.654;37.592;2022-07-18T15:04:13;6.13;;;1.83;;
35442;SDS011;21561;55.654;37.592;2022-07-18T15:06:44;4.65;;;1.52;;
35442;SDS011;21561;55.654;37.592;2022-07-18T15:09:13;5.97;;;1.80;;
35442;SDS011;21561;55.654;37.592;2022-07-18T15:11:41;7.05;;;1.60;;
35442;SDS011;21561;55.654;37.592;2022-07-18T15:14:08;6.60;;;2.03;;
35442;SDS011;21561;55.654;37.592;2022-07-18T15:16:36;4.65;;;1.77;;
35442;SDS011;21561;55.654;37.592;2022-07-18T15:19:03;6.90;;;2.05;;
35442;SDS011;21561;55.654;37.592;2022-07-18T15:21:30;7.03;;;1.65;;
35442;SDS011;21561;55.654;37.592;2022-07-18T15:23:58;8.32;;;2.22;;
35442;SDS011;21561;55.654;37.592;2022-07-18T15:26:25;10.48;;;2.10;;
35442;SDS011;21561;55.654;37.592;2022-07-18T15:28:52;11.00;;;2.65;;
35442;SDS011;21561;55.654;37.592;2022-07-18T15:31:19;11.60;;;2.55;;
35442;SDS011;21561;55.654;37.592;2022-07-18T15:33:46;10.75;;;2.90;;
35442;SDS011;21561;55.654;37.592;2022-07-18T15:36:13;12.05;;;3.10;;